Time;durP1;ratioP1;P1;durP2;ratioP2;P2;SDS_P1;SDS_P2;PMS_P1;PMS_P2;Temp;Humidity;BMP_temperature;BMP_pressure;BME280_temperature;BME280_humidity;BME280_pressure;Samples;Min_cycle;Max_cycle;Signal;HPM_P1;HPM_P2
2023/08/15 00:02:43;;;;;;;7.30;6.63;;;;;;;;;;2615099;54;20391;-70
2023/08/15 00:08:13;;;;;;;8.80;8.00;;;;;;;;;;2615264;46;20510;-71
2023/08/15 00:13:43;;;;;;;8.53;7.83;;;;;;;;;;2614945;54;20464;-71
2023/08/15 00:19:13;;;;;;;8.43;7.80;;;;;;;;;;2615017;54;20918;-70
2023/08/15 00:24:43;;;;;;;8.83;8.03;;;;;;;;;;2615390;54;20370;-70
2023/08/15 00:30:12;;;;;;;8.40;7.00;;;;;;;;;;2614921;54;20396;-71
2023/08/15 00:35:43;;;;;;;9.77;7.43;;;;;;;;;;2614646;54;20399;-70
2023/08/15 00:41:12;;;;;;;11.07;8.93;;;;;;;;;;2615118;54;21061;-70
2023/08/15 00:46:43;;;;;;;8.70;7.80;;;;;;;;;;2614826;54;20382;-73
2023/08/15 00:52:13;;;;;;;8.30;7.60;;;;;;;;;;2615036;54;20395;-71
2023/08/15 00:57:43;;;;;;;9.07;8.07;;;;;;;;;;2615034;54;20362;-71
2023/08/15 01:03:13;;;;;;;7.77;6.97;;;;;;;;;;2614891;54;20500;-73
2023/08/15 01:08:42;;;;;;;9.80;8.40;;;;;;;;;;2614848;54;20419;-73
2023/08/15 01:14:14;;;;;;;7.80;7.10;;;;;;;;;;2614879;54;20950;-73
2023/08/15 01:19:47;;;;;;;8.87;7.93;;;;;;;;;;2614459;54;20391;-73
2023/08/15 01:25:17;;;;;;;8.57;7.67;;;;;;;;;;2614772;54;20479;-73
2023/08/15 01:30:51;;;;;;;7.90;7.10;;;;;;;;;;2615058;54;20921;-73
2023/08/15 01:36:23;;;;;;;8.20;7.40;;;;;;;;;;2614596;54;20455;-74
2023/08/15 01:41:54;;;;;;;8.93;8.07;;;;;;;;;;2614806;54;20531;-73
2023/08/15 01:47:24;;;;;;;10.70;7.27;;;;;;;;;;2614511;54;20502;-74
2023/08/15 01:52:53;;;;;;;10.30;7.90;;;;;;;;;;2614781;54;20367;-73
2023/08/15 01:58:23;;;;;;;9.07;8.17;;;;;;;;;;2614923;54;20940;-73
2023/08/15 02:03:53;;;;;;;9.30;7.47;;;;;;;;;;2614830;54;20390;-73
2023/08/15 02:09:23;;;;;;;9.43;7.77;;;;;;;;;;2614937;54;20383;-74
2023/08/15 02:14:52;;;;;;;8.20;7.50;;;;;;;;;;2615238;54;20386;-73
2023/08/15 02:20:22;;;;;;;7.70;6.90;;;;;;;;;;2616051;54;20411;-74
2023/08/15 02:31:59;;;;;;;7.93;7.23;;;;;;;;;;2615112;54;20391;-74
2023/08/15 02:37:29;;;;;;;7.60;7.00;;;;;;;;;;2616036;39;21128;-74
2023/08/15 02:42:59;;;;;;;8.73;7.50;;;;;;;;;;2615610;54;20417;-74
2023/08/15 02:48:28;;;;;;;8.40;7.57;;;;;;;;;;2615615;54;20383;-74
2023/08/15 02:53:58;;;;;;;8.90;8.10;;;;;;;;;;2615782;54;20378;-75
2023/08/15 02:59:27;;;;;;;7.97;7.27;;;;;;;;;;2615156;54;20949;-73
2023/08/15 03:04:57;;;;;;;7.63;6.93;;;;;;;;;;2615576;54;20390;-73
2023/08/15 03:10:26;;;;;;;8.63;7.70;;;;;;;;;;2615452;54;20886;-75
2023/08/15 03:15:57;;;;;;;8.87;8.07;;;;;;;;;;2614960;54;20398;-74
2023/08/15 03:21:26;;;;;;;8.60;7.07;;;;;;;;;;2614473;54;20343;-75
2023/08/15 03:30:34;;;;;;;7.70;6.90;;;;;;;;;;2614385;54;20383;-74
2023/08/15 03:36:04;;;;;;;8.70;6.80;;;;;;;;;;2614154;54;20370;-73
2023/08/15 03:41:33;;;;;;;8.23;6.77;;;;;;;;;;2614565;54;20347;-73
2023/08/15 03:47:03;;;;;;;7.80;6.50;;;;;;;;;;2614031;54;20920;-73
2023/08/15 03:52:34;;;;;;;8.23;6.77;;;;;;;;;;2614696;54;20359;-73
2023/08/15 03:58:03;;;;;;;7.10;6.40;;;;;;;;;;2614332;54;20359;-72
2023/08/15 04:03:33;;;;;;;9.20;8.20;;;;;;;;;;2614246;54;20452;-73
2023/08/15 04:09:03;;;;;;;9.13;7.70;;;;;;;;;;2614375;54;20990;-73
2023/08/15 04:14:32;;;;;;;15.23;8.23;;;;;;;;;;2614148;54;21102;-73
2023/08/15 04:20:04;;;;;;;10.00;9.00;;;;;;;;;;2613728;54;20395;-73
2023/08/15 04:25:34;;;;;;;9.27;8.10;;;;;;;;;;2614132;54;20350;-72
2023/08/15 04:31:04;;;;;;;12.43;9.10;;;;;;;;;;2614998;54;20486;-71
2023/08/15 04:36:34;;;;;;;8.43;7.40;;;;;;;;;;2614644;54;20383;-72
2023/08/15 04:42:03;;;;;;;11.17;8.60;;;;;;;;;;2615280;54;20355;-71
2023/08/15 04:47:33;;;;;;;9.63;7.83;;;;;;;;;;2614851;54;20366;-71
2023/08/15 04:53:03;;;;;;;8.90;7.83;;;;;;;;;;2614889;54;20918;-71
2023/08/15 04:58:33;;;;;;;7.33;6.63;;;;;;;;;;2615275;54;20949;-71
2023/08/15 05:04:02;;;;;;;9.70;6.60;;;;;;;;;;2614817;54;20908;-71
2023/08/15 05:09:32;;;;;;;8.00;7.20;;;;;;;;;;2614863;54;20359;-72
2023/08/15 05:15:02;;;;;;;11.30;7.40;;;;;;;;;;2614504;54;20367;-71
2023/08/15 05:20:33;;;;;;;10.43;7.00;;;;;;;;;;2614740;54;20355;-71
2023/08/15 05:26:03;;;;;;;12.07;7.70;;;;;;;;;;2614152;54;20367;-72
2023/08/15 05:31:33;;;;;;;11.60;7.43;;;;;;;;;;2614964;54;20351;-71
2023/08/15 05:37:03;;;;;;;11.97;8.20;;;;;;;;;;2614613;54;21007;-72
2023/08/15 05:42:32;;;;;;;9.27;7.13;;;;;;;;;;2614911;54;20410;-73
2023/08/15 05:48:03;;;;;;;11.93;7.13;;;;;;;;;;2614964;54;20362;-73
2023/08/15 05:53:33;;;;;;;7.70;6.93;;;;;;;;;;2614549;54;20343;-72
2023/08/15 05:59:03;;;;;;;9.27;6.67;;;;;;;;;;2615466;39;20757;-72
2023/08/15 06:04:33;;;;;;;11.57;6.53;;;;;;;;;;2614438;54;20378;-72
2023/08/15 06:10:03;;;;;;;11.13;6.93;;;;;;;;;;2614559;54;20414;-73
2023/08/15 06:15:33;;;;;;;15.03;6.60;;;;;;;;;;2614564;39;20740;-72
2023/08/15 06:21:03;;;;;;;8.37;6.77;;;;;;;;;;2614586;54;20343;-73
2023/08/15 06:32:39;;;;;;;11.73;8.33;;;;;;;;;;2614417;54;20435;-73
2023/08/15 06:38:09;;;;;;;10.00;7.50;;;;;;;;;;2615413;39;20743;-73
2023/08/15 06:43:39;;;;;;;7.73;6.93;;;;;;;;;;2614632;54;20484;-73
2023/08/15 06:49:08;;;;;;;6.73;6.07;;;;;;;;;;2614378;54;20952;-72
2023/08/15 06:54:38;;;;;;;9.23;7.30;;;;;;;;;;2614363;54;20387;-72
2023/08/15 07:00:11;;;;;;;9.27;6.77;;;;;;;;;;2614632;54;20367;-72
2023/08/15 07:05:41;;;;;;;8.73;6.90;;;;;;;;;;2613905;54;20965;-72
2023/08/15 07:11:11;;;;;;;9.73;6.93;;;;;;;;;;2614000;54;20391;-72
2023/08/15 07:16:41;;;;;;;11.20;7.77;;;;;;;;;;2613910;54;20386;-72
2023/08/15 07:22:10;;;;;;;9.60;7.47;;;;;;;;;;2614641;54;20925;-72
2023/08/15 07:31:20;;;;;;;8.67;6.57;;;;;;;;;;2614617;54;20512;-69
2023/08/15 07:36:50;;;;;;;8.43;7.20;;;;;;;;;;2614120;54;20366;-69
2023/08/15 07:42:20;;;;;;;12.00;6.80;;;;;;;;;;2614451;54;20492;-69
2023/08/15 07:47:54;;;;;;;10.30;7.00;;;;;;;;;;2614663;54;20371;-71
2023/08/15 07:53:24;;;;;;;10.00;6.90;;;;;;;;;;2614798;54;20382;-69
2023/08/15 07:58:54;;;;;;;12.77;8.90;;;;;;;;;;2614667;54;20491;-71
2023/08/15 08:04:24;;;;;;;7.60;6.83;;;;;;;;;;2614622;54;20390;-71
2023/08/15 08:09:53;;;;;;;7.20;6.20;;;;;;;;;;2615053;54;20358;-72
2023/08/15 08:15:23;;;;;;;5.90;5.37;;;;;;;;;;2614900;54;20402;-72
2023/08/15 08:20:53;;;;;;;6.43;5.83;;;;;;;;;;2615003;54;20459;-72
2023/08/15 08:26:23;;;;;;;5.70;5.40;;;;;;;;;;2615344;54;20363;-72
2023/08/15 08:31:52;;;;;;;5.50;5.20;;;;;;;;;;2614746;54;20556;-73
2023/08/15 08:37:22;;;;;;;6.73;6.13;;;;;;;;;;2614392;54;20411;-71
2023/08/15 08:42:52;;;;;;;6.37;5.97;;;;;;;;;;2614972;54;20355;-72
2023/08/15 08:48:22;;;;;;;6.83;6.17;;;;;;;;;;2614641;54;20543;-72
2023/08/15 08:53:52;;;;;;;6.90;6.50;;;;;;;;;;2614770;54;20365;-72
2023/08/15 08:59:26;;;;;;;8.53;7.70;;;;;;;;;;2615108;54;20439;-72
2023/08/15 09:04:55;;;;;;;8.60;7.83;;;;;;;;;;2614539;54;21258;-73
2023/08/15 09:10:25;;;;;;;8.80;8.30;;;;;;;;;;2614979;54;20395;-70
2023/08/15 09:15:59;;;;;;;8.20;7.60;;;;;;;;;;2614428;54;20387;-69
2023/08/15 09:21:29;;;;;;;8.37;7.77;;;;;;;;;;2614735;54;20359;-69
2023/08/15 09:27:05;;;;;;;7.53;7.03;;;;;;;;;;2615065;39;20766;-69
2023/08/15 09:36:07;;;;;;;7.13;6.83;;;;;;;;;;2614879;54;20411;-70
2023/08/15 09:41:42;;;;;;;8.50;7.90;;;;;;;;;;2615068;54;20510;-70
2023/08/15 09:47:11;;;;;;;7.87;7.13;;;;;;;;;;2614775;54;20363;-69
2023/08/15 09:52:42;;;;;;;7.23;6.73;;;;;;;;;;2614890;54;20366;-69
2023/08/15 09:58:11;;;;;;;9.07;8.37;;;;;;;;;;2614515;54;20362;-69
2023/08/15 10:03:42;;;;;;;7.97;7.57;;;;;;;;;;2614606;54;21048;-68
2023/08/15 10:09:14;;;;;;;8.97;8.27;;;;;;;;;;2614971;54;21175;-70
2023/08/15 10:14:44;;;;;;;9.50;9.00;;;;;;;;;;2615580;31;20827;-71
2023/08/15 10:20:19;;;;;;;9.07;8.67;;;;;;;;;;2614935;54;20382;-72
2023/08/15 10:25:49;;;;;;;9.93;8.70;;;;;;;;;;2614715;54;20407;-73
2023/08/15 10:31:36;;;;;;;9.23;8.73;;;;;;;;;;2614731;54;20953;-73
2023/08/15 10:37:24;;;;;;;9.60;9.10;;;;;;;;;;2615128;39;20866;-72
2023/08/15 10:43:02;;;;;;;9.90;9.20;;;;;;;;;;2615197;39;20819;-73
2023/08/15 10:48:35;;;;;;;10.73;10.03;;;;;;;;;;2614415;54;20956;-72
2023/08/15 10:51:20;;;;;;;10.57;9.57;;;;;;;;;;2614502;54;20427;-72
2023/08/15 10:53:47;;;;;;;10.37;9.80;;;;;;;;;;2614938;54;20515;-73
2023/08/15 10:59:18;;;;;;;10.10;9.47;;;;;;;;;;2614618;54;20387;-73
2023/08/15 11:04:48;;;;;;;10.00;9.20;;;;;;;;;;2614417;54;20351;-73
2023/08/15 11:10:17;;;;;;;10.67;9.87;;;;;;;;;;2614583;54;20383;-72
2023/08/15 11:15:47;;;;;;;9.53;8.93;;;;;;;;;;2614753;54;20379;-73
2023/08/15 11:21:17;;;;;;;9.57;8.97;;;;;;;;;;2614325;54;20358;-72
2023/08/15 11:26:47;;;;;;;10.03;9.33;;;;;;;;;;2614655;54;20355;-73
2023/08/15 11:38:27;;;;;;;11.13;10.33;;;;;;;;;;2614736;54;20909;-72
2023/08/15 11:43:58;;;;;;;10.63;9.93;;;;;;;;;;2615219;54;20968;-74
2023/08/15 11:49:32;;;;;;;12.20;10.23;;;;;;;;;;2615269;46;20897;-73
2023/08/15 11:55:05;;;;;;;11.63;10.73;;;;;;;;;;2615017;54;20374;-73
2023/08/15 12:00:36;;;;;;;11.80;11.00;;;;;;;;;;2614938;54;20945;-73
2023/08/15 12:06:06;;;;;;;10.43;9.83;;;;;;;;;;2615020;54;20423;-73
2023/08/15 12:11:36;;;;;;;10.43;9.67;;;;;;;;;;2615132;54;20386;-72
2023/08/15 12:17:06;;;;;;;9.80;9.20;;;;;;;;;;2615035;46;20378;-74
2023/08/15 12:22:36;;;;;;;11.83;11.03;;;;;;;;;;2615341;46;20493;-74
2023/08/15 12:28:07;;;;;;;10.43;9.80;;;;;;;;;;2614945;54;20374;-73
2023/08/15 12:37:11;;;;;;;9.93;9.43;;;;;;;;;;2614982;54;20399;-72
2023/08/15 12:42:41;;;;;;;10.00;9.40;;;;;;;;;;2614992;54;20398;-71
2023/08/15 12:48:10;;;;;;;10.20;9.60;;;;;;;;;;2615458;54;20909;-73
2023/08/15 12:53:40;;;;;;;10.53;9.73;;;;;;;;;;2615242;54;20476;-72
2023/08/15 12:59:09;;;;;;;9.67;9.07;;;;;;;;;;2614931;54;20355;-72
2023/08/15 13:04:39;;;;;;;11.77;10.90;;;;;;;;;;2614810;39;20884;-72
2023/08/15 13:10:09;;;;;;;10.30;9.70;;;;;;;;;;2615267;39;20772;-73
2023/08/15 13:15:39;;;;;;;11.20;10.50;;;;;;;;;;2614730;54;20387;-72
2023/08/15 13:21:08;;;;;;;10.63;9.90;;;;;;;;;;2614807;54;20371;-72
2023/08/15 13:26:38;;;;;;;11.13;10.23;;;;;;;;;;2614870;54;20463;-73
2023/08/15 13:32:08;;;;;;;10.67;10.10;;;;;;;;;;2615320;39;20725;-74
2023/08/15 13:37:37;;;;;;;10.87;9.53;;;;;;;;;;2615246;39;20697;-73
2023/08/15 13:43:07;;;;;;;10.50;9.73;;;;;;;;;;2614729;54;20363;-74
2023/08/15 13:48:37;;;;;;;11.03;10.30;;;;;;;;;;2614763;54;20603;-73
2023/08/15 13:54:07;;;;;;;11.43;10.27;;;;;;;;;;2614932;54;20371;-75
2023/08/15 13:59:36;;;;;;;11.97;11.10;;;;;;;;;;2615251;54;20467;-74
2023/08/15 14:05:06;;;;;;;11.40;10.60;;;;;;;;;;2615392;54;20950;-73
2023/08/15 14:10:36;;;;;;;11.13;10.40;;;;;;;;;;2615369;54;20917;-74
2023/08/15 14:16:06;;;;;;;11.73;10.83;;;;;;;;;;2615198;54;20366;-74
2023/08/15 14:21:37;;;;;;;10.57;9.97;;;;;;;;;;2615659;54;20387;-73
2023/08/15 14:27:06;;;;;;;10.90;10.20;;;;;;;;;;2615094;54;20394;-74
2023/08/15 14:32:36;;;;;;;12.00;11.07;;;;;;;;;;2615085;54;20950;-74
2023/08/15 14:38:06;;;;;;;11.50;10.50;;;;;;;;;;2614949;54;21010;-75
2023/08/15 14:43:35;;;;;;;11.37;10.53;;;;;;;;;;2614974;54;20391;-74
2023/08/15 14:49:05;;;;;;;10.80;10.00;;;;;;;;;;2615553;54;20386;-75
2023/08/15 14:54:35;;;;;;;11.00;10.20;;;;;;;;;;2615730;31;20848;-73
2023/08/15 15:00:07;;;;;;;10.67;10.10;;;;;;;;;;2615687;31;20826;-74
2023/08/15 15:05:37;;;;;;;10.77;10.03;;;;;;;;;;2614354;54;20500;-72
2023/08/15 15:11:06;;;;;;;10.77;9.87;;;;;;;;;;2614312;54;20386;-73
2023/08/15 15:16:36;;;;;;;10.40;9.80;;;;;;;;;;2614528;54;20406;-72
2023/08/15 15:22:06;;;;;;;10.63;9.97;;;;;;;;;;2614198;54;20391;-73
2023/08/15 15:27:35;;;;;;;9.90;9.30;;;;;;;;;;2614310;54;20523;-73
2023/08/15 15:39:12;;;;;;;10.60;10.00;;;;;;;;;;2614627;54;20897;-74
2023/08/15 15:44:42;;;;;;;10.10;9.30;;;;;;;;;;2614108;54;20383;-72
2023/08/15 15:50:12;;;;;;;10.63;9.93;;;;;;;;;;2614226;39;20512;-73
2023/08/15 15:55:42;;;;;;;11.93;11.23;;;;;;;;;;2614780;54;20358;-70
2023/08/15 16:01:12;;;;;;;12.27;11.57;;;;;;;;;;2614130;54;20363;-69
2023/08/15 16:06:41;;;;;;;12.50;11.70;;;;;;;;;;2614990;54;20483;-70
2023/08/15 16:12:11;;;;;;;12.87;11.90;;;;;;;;;;2614424;54;20386;-73
2023/08/15 16:17:42;;;;;;;12.90;12.00;;;;;;;;;;2614262;54;20390;-72
2023/08/15 16:23:13;;;;;;;11.20;10.40;;;;;;;;;;2614813;54;20386;-73
2023/08/15 16:28:45;;;;;;;12.63;11.30;;;;;;;;;;2614894;54;20392;-73
2023/08/15 16:37:53;;;;;;;11.80;10.90;;;;;;;;;;2614842;54;20407;-73
2023/08/15 16:43:22;;;;;;;12.60;11.60;;;;;;;;;;2615461;39;20765;-74
2023/08/15 16:48:52;;;;;;;17.60;16.30;;;;;;;;;;2615191;54;20382;-74
2023/08/15 16:51:37;;;;;;;13.20;12.03;;;;;;;;;;2615104;54;20532;-72
2023/08/15 16:54:03;;;;;;;13.20;12.30;;;;;;;;;;2614872;54;20395;-73
2023/08/15 16:59:32;;;;;;;12.90;11.90;;;;;;;;;;2615434;39;20768;-73
2023/08/15 17:05:04;;;;;;;12.73;11.60;;;;;;;;;;2615300;54;20375;-70
2023/08/15 17:10:33;;;;;;;11.53;10.83;;;;;;;;;;2615118;54;20379;-69
2023/08/15 17:16:03;;;;;;;12.27;11.37;;;;;;;;;;2616106;31;20797;-70
2023/08/15 17:21:32;;;;;;;11.73;10.70;;;;;;;;;;2615250;54;20368;-74
2023/08/15 17:27:02;;;;;;;11.60;10.90;;;;;;;;;;2614673;54;20378;-76
2023/08/15 17:32:32;;;;;;;11.90;11.20;;;;;;;;;;2614939;54;20395;-74
2023/08/15 17:38:01;;;;;;;12.80;11.90;;;;;;;;;;2614939;54;20375;-76
2023/08/15 17:43:31;;;;;;;11.43;10.53;;;;;;;;;;2614967;54;20511;-73
2023/08/15 17:49:00;;;;;;;13.00;11.90;;;;;;;;;;2615659;54;20378;-74
2023/08/15 17:54:30;;;;;;;11.83;10.93;;;;;;;;;;2615003;54;20467;-75
2023/08/15 18:00:00;;;;;;;12.60;11.80;;;;;;;;;;2615094;54;20435;-75
2023/08/15 18:05:30;;;;;;;12.73;11.40;;;;;;;;;;2614854;54;20438;-75
2023/08/15 18:10:59;;;;;;;12.73;11.67;;;;;;;;;;2615184;54;20391;-75
2023/08/15 18:16:29;;;;;;;10.90;10.07;;;;;;;;;;2615038;54;20386;-75
2023/08/15 18:21:59;;;;;;;12.60;10.90;;;;;;;;;;2615510;54;20383;-76
2023/08/15 18:27:28;;;;;;;12.03;11.13;;;;;;;;;;2614988;54;20350;-74
2023/08/15 18:32:58;;;;;;;13.77;12.53;;;;;;;;;;2615272;54;20379;-73
2023/08/15 18:38:29;;;;;;;13.53;12.23;;;;;;;;;;2615359;54;20442;-74
2023/08/15 18:43:59;;;;;;;12.50;11.60;;;;;;;;;;2614944;54;20427;-74
2023/08/15 18:49:29;;;;;;;11.53;10.63;;;;;;;;;;2615610;54;20400;-75
2023/08/15 18:54:59;;;;;;;13.17;11.97;;;;;;;;;;2615667;54;20399;-75
2023/08/15 19:00:29;;;;;;;12.63;11.70;;;;;;;;;;2614536;54;20403;-74
2023/08/15 19:05:59;;;;;;;14.60;11.60;;;;;;;;;;2615150;46;20395;-74
2023/08/15 19:11:28;;;;;;;12.87;11.77;;;;;;;;;;2615011;54;20383;-74
2023/08/15 19:16:58;;;;;;;12.17;11.20;;;;;;;;;;2615126;39;20755;-74
2023/08/15 19:22:27;;;;;;;11.70;10.60;;;;;;;;;;2614856;54;20418;-74
2023/08/15 19:27:57;;;;;;;12.10;11.00;;;;;;;;;;2614984;54;20392;-74
2023/08/15 19:33:27;;;;;;;12.30;11.20;;;;;;;;;;2614823;54;20378;-73
2023/08/15 19:42:31;;;;;;;11.70;10.00;;;;;;;;;;2614950;54;20430;-74
2023/08/15 19:48:01;;;;;;;10.97;9.93;;;;;;;;;;2615020;54;20418;-74
2023/08/15 19:53:30;;;;;;;12.47;10.10;;;;;;;;;;2615165;54;20370;-74
2023/08/15 19:59:00;;;;;;;11.80;10.07;;;;;;;;;;2615504;54;20394;-74
2023/08/15 20:04:30;;;;;;;9.83;8.87;;;;;;;;;;2616048;54;20387;-75
2023/08/15 20:10:00;;;;;;;10.20;9.50;;;;;;;;;;2616308;54;20390;-75
2023/08/15 20:15:29;;;;;;;10.70;9.70;;;;;;;;;;2616173;54;20387;-74
2023/08/15 20:20:59;;;;;;;11.33;10.20;;;;;;;;;;2616270;54;20383;-75
2023/08/15 20:26:28;;;;;;;15.53;10.40;;;;;;;;;;2616415;54;20404;-74
2023/08/15 20:31:58;;;;;;;11.93;11.13;;;;;;;;;;2616195;54;21446;-74
2023/08/15 20:37:28;;;;;;;13.20;10.90;;;;;;;;;;2616266;54;20391;-74
2023/08/15 20:42:57;;;;;;;12.30;11.30;;;;;;;;;;2616037;54;20538;-74
2023/08/15 20:48:27;;;;;;;12.33;11.23;;;;;;;;;;2616154;46;20406;-74
2023/08/15 20:53:57;;;;;;;11.80;10.80;;;;;;;;;;2614964;54;20375;-73
2023/08/15 20:59:27;;;;;;;12.60;11.50;;;;;;;;;;2614727;54;20406;-74
2023/08/15 21:04:56;;;;;;;13.63;12.17;;;;;;;;;;2614768;54;20387;-73
2023/08/15 21:10:26;;;;;;;16.57;12.97;;;;;;;;;;2615063;54;20379;-73
2023/08/15 21:15:56;;;;;;;12.50;11.20;;;;;;;;;;2615198;54;20498;-73
2023/08/15 21:21:26;;;;;;;12.20;11.03;;;;;;;;;;2614371;54;20407;-73
2023/08/15 21:26:55;;;;;;;12.17;11.27;;;;;;;;;;2614521;54;20952;-73
2023/08/15 21:32:25;;;;;;;13.03;11.90;;;;;;;;;;2615416;54;20375;-73
2023/08/15 21:37:54;;;;;;;12.17;10.63;;;;;;;;;;2615227;54;20418;-73
2023/08/15 21:47:02;;;;;;;13.60;11.87;;;;;;;;;;2615035;54;20406;-73
2023/08/15 21:52:31;;;;;;;12.60;11.10;;;;;;;;;;2615161;54;20395;-72
2023/08/15 21:58:01;;;;;;;12.20;10.67;;;;;;;;;;2614829;54;20371;-74
2023/08/15 22:03:31;;;;;;;11.33;10.37;;;;;;;;;;2615124;54;20374;-73
2023/08/15 22:09:00;;;;;;;10.90;9.97;;;;;;;;;;2615248;54;20431;-74
2023/08/15 22:14:30;;;;;;;12.00;10.80;;;;;;;;;;2615170;54;20972;-73
2023/08/15 22:19:59;;;;;;;11.27;10.23;;;;;;;;;;2615098;54;20969;-75
2023/08/15 22:25:29;;;;;;;11.67;10.47;;;;;;;;;;2615380;54;20367;-75
2023/08/15 22:30:58;;;;;;;11.70;9.97;;;;;;;;;;2615339;54;20411;-74
2023/08/15 22:36:28;;;;;;;11.30;10.03;;;;;;;;;;2615668;39;20927;-75
2023/08/15 22:39:13;;;;;;;12.10;10.07;;;;;;;;;;2615255;54;20404;-74
2023/08/15 22:41:39;;;;;;;16.40;12.57;;;;;;;;;;2614923;54;20415;-75
2023/08/15 22:44:05;;;;;;;11.63;10.63;;;;;;;;;;2615028;54;20439;-75
2023/08/15 22:52:39;;;;;;;10.07;9.17;;;;;;;;;;2615421;54;20384;-75
2023/08/15 22:58:10;;;;;;;10.13;9.20;;;;;;;;;;2615619;54;20411;-75
2023/08/15 23:03:39;;;;;;;11.27;9.60;;;;;;;;;;2615901;54;20917;-74
2023/08/15 23:09:12;;;;;;;10.87;9.97;;;;;;;;;;2616278;39;20765;-75
2023/08/15 23:14:42;;;;;;;11.53;10.07;;;;;;;;;;2614975;54;20382;-71
2023/08/15 23:20:12;;;;;;;13.10;9.83;;;;;;;;;;2614878;54;20363;-70
2023/08/15 23:25:41;;;;;;;16.50;12.13;;;;;;;;;;2615296;54;20399;-71
2023/08/15 23:31:11;;;;;;;10.03;9.10;;;;;;;;;;2614851;46;20403;-72
2023/08/15 23:36:41;;;;;;;10.70;9.70;;;;;;;;;;2615435;54;21228;-71
2023/08/15 23:42:10;;;;;;;12.40;11.10;;;;;;;;;;2615484;54;20995;-72
2023/08/15 23:51:15;;;;;;;9.67;8.93;;;;;;;;;;2615592;54;20938;-71
2023/08/15 23:56:44;;;;;;;11.77;10.03;;;;;;;;;;2615297;54;20374;-70
